createdAt,value
2022-10-10T00:02:10.491Z,3.20
2022-10-10T00:04:39.522Z,3.20
2022-10-10T00:07:09.306Z,3.20
2022-10-10T00:09:42.468Z,3.20
2022-10-10T00:12:18.893Z,3.10
2022-10-10T00:14:47.479Z,3.10
2022-10-10T00:17:17.152Z,3.10
2022-10-10T00:19:46.135Z,3.10
2022-10-10T00:22:20.858Z,3.10
2022-10-10T00:24:51.678Z,3.10
2022-10-10T00:27:24.252Z,3.10
2022-10-10T00:29:56.557Z,3.00
2022-10-10T00:32:27.510Z,3.10
2022-10-10T00:34:57.328Z,3.10
2022-10-10T00:37:28.779Z,3.10
2022-10-10T00:40:03.502Z,3.00
2022-10-10T00:46:24.567Z,3.00
2022-10-10T00:48:53.317Z,3.00
2022-10-10T00:51:21.925Z,3.00
2022-10-10T00:53:53.026Z,3.00
2022-10-10T00:56:26.871Z,3.00
2022-10-10T00:58:59.436Z,3.00
2022-10-10T01:01:29.776Z,3.00
2022-10-10T01:04:00.093Z,3.00
2022-10-10T01:06:29.269Z,3.00
2022-10-10T01:08:58.585Z,3.00
2022-10-10T01:11:48.263Z,3.00
2022-10-10T01:14:31.613Z,3.00
2022-10-10T01:17:08.603Z,3.00
2022-10-10T01:20:17.895Z,3.00
2022-10-10T01:23:04.021Z,3.00
2022-10-10T01:25:38.038Z,3.00
2022-10-10T01:28:21.888Z,3.00
2022-10-10T01:30:51.309Z,3.00
2022-10-10T01:33:29.781Z,2.90
2022-10-10T01:36:04.820Z,3.00
2022-10-10T01:38:37.982Z,2.90
2022-10-10T01:41:11.916Z,2.90
2022-10-10T01:43:41.952Z,2.90
2022-10-10T01:46:12.734Z,2.90
2022-10-10T01:48:42.478Z,2.80
2022-10-10T01:51:33.709Z,2.80
2022-10-10T01:54:10.601Z,2.80
2022-10-10T01:56:48.456Z,2.80
2022-10-10T01:59:35.922Z,2.80
2022-10-10T02:02:10.686Z,2.70
2022-10-10T02:04:44.300Z,2.70
2022-10-10T02:07:18.201Z,2.70
2022-10-10T02:09:48.085Z,2.80
2022-10-10T02:12:17.443Z,2.70
2022-10-10T02:14:52.350Z,2.70
2022-10-10T02:17:22.190Z,2.80
2022-10-10T02:19:54.275Z,2.70
2022-10-10T02:22:24.293Z,2.70
2022-10-10T02:24:54.187Z,2.80
2022-10-10T02:27:30.198Z,2.80
2022-10-10T02:30:02.623Z,2.80
2022-10-10T02:32:37.852Z,2.70
2022-10-10T02:35:10.775Z,2.70
2022-10-10T02:37:43.489Z,2.60
2022-10-10T02:40:21.206Z,2.60
2022-10-10T02:42:54.576Z,2.60
2022-10-10T02:45:31.072Z,2.50
2022-10-10T02:48:05.854Z,2.50
2022-10-10T02:50:39.030Z,2.50
2022-10-10T02:53:12.063Z,2.50
2022-10-10T02:55:45.236Z,2.60
2022-10-10T02:58:15.790Z,2.50
2022-10-10T03:00:50.197Z,2.50
2022-10-10T03:03:21.558Z,2.50
2022-10-10T03:05:58.109Z,2.60
2022-10-10T03:08:28.479Z,2.50
2022-10-10T03:11:01.824Z,2.50
2022-10-10T03:13:36.857Z,2.50
2022-10-10T03:16:08.496Z,2.60
2022-10-10T03:18:40.174Z,2.60
2022-10-10T03:21:14.464Z,2.60
2022-10-10T03:23:46.282Z,2.70
2022-10-10T03:26:20.294Z,2.70
2022-10-10T03:28:51.642Z,2.70
2022-10-10T03:31:31.509Z,2.70
2022-10-10T03:34:03.523Z,2.80
2022-10-10T03:36:34.416Z,2.80
2022-10-10T03:39:10.803Z,2.80
2022-10-10T03:41:39.478Z,2.80
2022-10-10T03:44:10.876Z,2.80
2022-10-10T03:46:46.347Z,2.90
2022-10-10T03:49:21.067Z,3.00
2022-10-10T03:51:56.638Z,3.00
2022-10-10T03:54:31.070Z,3.00
2022-10-10T03:57:06.494Z,3.00
2022-10-10T03:59:41.274Z,3.00
2022-10-10T04:02:18.199Z,3.00
2022-10-10T04:04:48.558Z,3.10
2022-10-10T04:07:24.571Z,3.00
2022-10-10T04:10:03.728Z,3.00
2022-10-10T04:12:37.921Z,3.00
2022-10-10T04:15:13.309Z,3.00
2022-10-10T04:17:50.284Z,3.00
2022-10-10T04:20:24.679Z,3.00
2022-10-10T04:22:58.141Z,3.00
2022-10-10T04:25:31.709Z,3.00
2022-10-10T04:28:03.361Z,3.00
2022-10-10T04:30:36.779Z,2.90
2022-10-10T04:33:24.769Z,2.90
2022-10-10T04:35:55.389Z,2.90
2022-10-10T04:38:25.954Z,2.90
2022-10-10T04:41:00.163Z,3.00
2022-10-10T04:43:32.037Z,3.00
2022-10-10T04:46:04.119Z,3.00
2022-10-10T04:48:36.604Z,3.00
2022-10-10T04:51:07.321Z,3.10
2022-10-10T04:53:38.336Z,3.10
2022-10-10T04:56:09.733Z,3.10
2022-10-10T04:58:39.698Z,3.10
2022-10-10T05:01:09.881Z,3.10
2022-10-10T06:34:05.338Z,3.80
2022-10-10T06:36:33.960Z,3.90
2022-10-10T06:39:02.599Z,4.00
2022-10-10T06:41:31.317Z,4.10
2022-10-10T06:44:00.053Z,4.20
2022-10-10T06:46:28.960Z,4.30
2022-10-10T06:48:57.569Z,4.40
2022-10-10T06:51:27.567Z,4.50
2022-10-10T06:53:58.183Z,4.50
2022-10-10T06:56:28.062Z,4.60
2022-10-10T06:58:57.061Z,4.70
2022-10-10T07:01:27.029Z,4.80
2022-10-10T07:03:55.800Z,4.90
2022-10-10T07:06:24.517Z,4.90
2022-10-10T07:08:54.603Z,5.10
2022-10-10T07:11:23.336Z,5.20
2022-10-10T07:13:53.914Z,5.30
2022-10-10T07:16:23.294Z,5.30
2022-10-10T07:18:52.019Z,5.40
2022-10-10T07:21:20.622Z,5.50
2022-10-10T07:23:49.230Z,5.60
2022-10-10T07:26:22.485Z,5.70
2022-10-10T07:28:51.298Z,5.80
2022-10-10T07:31:19.950Z,5.90
2022-10-10T07:33:50.956Z,6.10
2022-10-10T07:36:20.261Z,6.20
2022-10-10T07:38:52.359Z,6.20
2022-10-10T07:41:22.926Z,6.30
2022-10-10T07:43:56.183Z,6.40
2022-10-10T07:46:25.065Z,6.50
2022-10-10T07:48:53.705Z,6.60
2022-10-10T07:51:22.573Z,6.70
2022-10-10T07:53:52.727Z,6.70
2022-10-10T07:56:22.886Z,6.90
2022-10-10T07:58:51.551Z,7.00
2022-10-10T08:01:20.458Z,7.00
2022-10-10T08:03:49.446Z,7.00
2022-10-10T08:06:19.612Z,7.10
2022-10-10T08:08:51.876Z,7.20
2022-10-10T08:11:23.206Z,7.30
2022-10-10T08:13:52.391Z,7.30
2022-10-10T08:16:21.239Z,7.40
2022-10-10T08:18:50.025Z,7.50
2022-10-10T08:21:20.461Z,7.60
2022-10-10T08:23:49.557Z,7.70
2022-10-10T08:26:20.100Z,7.70
2022-10-10T08:28:50.761Z,7.80
2022-10-10T08:31:21.721Z,7.80
2022-10-10T08:33:51.692Z,7.80
2022-10-10T08:36:22.580Z,8.00
2022-10-10T08:38:52.854Z,8.10
2022-10-10T08:41:32.350Z,8.20
2022-10-10T08:44:06.177Z,8.40
2022-10-10T08:46:40.600Z,8.50
2022-10-10T08:49:19.415Z,8.60
2022-10-10T08:51:53.119Z,8.60
2022-10-10T08:54:24.609Z,8.70
2022-10-10T08:56:56.435Z,8.80
2022-10-10T08:59:31.021Z,8.90
2022-10-10T09:02:23.463Z,9.00
2022-10-10T09:04:55.019Z,9.10
2022-10-10T09:07:33.567Z,9.30
2022-10-10T09:10:14.004Z,9.40
2022-10-10T09:12:54.365Z,9.50
2022-10-10T09:15:30.236Z,9.60
2022-10-10T09:18:11.673Z,9.70
2022-10-10T09:20:52.061Z,9.80
2022-10-10T09:23:26.635Z,10.00
2022-10-10T09:26:00.793Z,10.00
2022-10-10T09:28:39.267Z,10.20
2022-10-10T09:31:16.190Z,10.30
2022-10-10T09:33:51.503Z,10.30
2022-10-10T09:36:25.264Z,10.30
2022-10-10T09:38:57.888Z,10.30
2022-10-10T09:41:36.519Z,10.40
2022-10-10T09:44:08.480Z,10.40
2022-10-10T09:46:39.350Z,10.40
2022-10-10T09:49:08.463Z,10.40
2022-10-10T09:51:37.150Z,10.60
2022-10-10T09:54:08.123Z,10.60
2022-10-10T09:56:41.845Z,10.70
2022-10-10T09:59:37.718Z,10.80
2022-10-10T10:02:15.412Z,10.90
2022-10-10T10:04:44.370Z,11.00
2022-10-10T10:07:22.454Z,11.10
2022-10-10T10:09:52.878Z,11.20
2022-10-10T10:12:25.251Z,11.30
2022-10-10T10:14:58.985Z,11.40
2022-10-10T10:17:29.310Z,11.50
2022-10-10T10:19:57.976Z,11.60
2022-10-10T10:22:35.089Z,11.60
2022-10-10T10:25:32.089Z,11.70
2022-10-10T10:28:18.263Z,11.70
2022-10-10T10:30:47.395Z,11.70
2022-10-10T10:33:28.865Z,11.80
2022-10-10T10:36:04.506Z,11.90
2022-10-10T10:38:43.746Z,12.00
2022-10-10T10:41:24.191Z,12.00
2022-10-10T10:44:10.047Z,12.10
2022-10-10T10:46:52.648Z,12.20
2022-10-10T10:49:29.958Z,12.10
2022-10-10T10:52:40.119Z,12.20
2022-10-10T10:55:20.677Z,12.20
2022-10-10T11:01:27.929Z,12.30
2022-10-10T11:05:18.388Z,12.30
2022-10-10T11:07:18.522Z,12.30
2022-10-10T11:09:58.220Z,12.40
2022-10-10T11:12:45.040Z,12.50
2022-10-10T11:15:19.219Z,12.50
2022-10-10T11:17:54.833Z,12.60
2022-10-10T11:20:29.643Z,12.70
2022-10-10T11:23:09.061Z,12.60
2022-10-10T11:25:43.484Z,12.70
2022-10-10T11:28:16.949Z,12.80
2022-10-10T11:30:56.002Z,12.80
2022-10-10T11:33:28.113Z,12.80
2022-10-10T11:36:03.407Z,12.90
2022-10-10T11:38:41.357Z,12.90
2022-10-10T11:41:15.345Z,13.00
2022-10-10T11:43:53.454Z,13.00
2022-10-10T11:46:31.466Z,13.10
2022-10-10T11:49:08.520Z,13.20
2022-10-10T11:52:28.882Z,13.20
2022-10-10T11:55:00.300Z,13.20
2022-10-10T11:57:35.315Z,13.20
2022-10-10T12:00:08.125Z,13.20
2022-10-10T12:02:40.512Z,13.20
2022-10-10T12:05:20.963Z,13.10
2022-10-10T12:08:04.168Z,13.10
2022-10-10T12:10:39.139Z,13.10
2022-10-10T12:13:25.402Z,13.20
2022-10-10T12:15:57.272Z,13.20
2022-10-10T12:18:29.550Z,13.30
2022-10-10T12:21:10.487Z,13.40
2022-10-10T12:23:43.026Z,13.60
2022-10-10T12:26:24.674Z,13.60
2022-10-10T12:29:05.176Z,13.70
2022-10-10T12:31:36.460Z,13.70
2022-10-10T12:34:14.898Z,13.70
2022-10-10T12:37:23.058Z,13.80
2022-10-10T12:40:21.437Z,13.70
2022-10-10T12:43:22.758Z,13.70
2022-10-10T12:46:08.908Z,13.80
2022-10-10T12:48:38.370Z,13.80
2022-10-10T12:51:07.513Z,13.80
2022-10-10T12:53:36.706Z,13.90
2022-10-10T12:56:05.719Z,13.90
2022-10-10T12:58:40.327Z,13.90
2022-10-10T13:01:24.993Z,13.90
2022-10-10T13:03:55.770Z,13.80
2022-10-10T13:06:33.553Z,13.80
2022-10-10T13:09:04.024Z,13.80
2022-10-10T13:11:34.779Z,13.80
2022-10-10T13:14:10.546Z,13.80
2022-10-10T13:16:45.915Z,13.90
2022-10-10T13:19:21.702Z,13.90
2022-10-10T13:21:52.530Z,13.90
2022-10-10T13:24:29.452Z,13.90
2022-10-10T13:26:58.737Z,13.90
2022-10-10T13:29:31.540Z,13.80
2022-10-10T13:32:03.368Z,13.90
2022-10-10T13:34:35.519Z,14.00
2022-10-10T13:37:06.991Z,13.90
2022-10-10T13:39:38.311Z,13.80
2022-10-10T13:42:08.047Z,13.70
2022-10-10T13:44:52.497Z,13.80
2022-10-10T13:47:48.211Z,13.90
2022-10-10T13:50:27.229Z,13.90
2022-10-10T13:53:24.564Z,13.90
2022-10-10T13:55:59.757Z,14.00
2022-10-10T13:58:29.610Z,13.90
2022-10-10T14:01:01.202Z,13.90
2022-10-10T14:03:32.730Z,13.80
2022-10-10T14:06:01.731Z,13.70
2022-10-10T14:08:34.652Z,13.60
2022-10-10T14:11:08.276Z,13.60
2022-10-10T14:13:39.928Z,13.60
2022-10-10T14:16:14.581Z,13.70
2022-10-10T14:18:43.209Z,13.50
2022-10-10T14:21:12.205Z,13.40
2022-10-10T14:23:41.562Z,13.30
2022-10-10T14:26:15.256Z,13.40
2022-10-10T14:28:44.457Z,13.40
2022-10-10T14:31:14.934Z,13.40
2022-10-10T14:33:43.673Z,13.30
2022-10-10T14:36:14.750Z,13.30
2022-10-10T14:38:43.399Z,13.30
2022-10-10T14:41:14.136Z,13.20
2022-10-10T14:43:45.868Z,13.30
2022-10-10T14:46:20.705Z,13.20
2022-10-10T14:48:49.549Z,13.20
2022-10-10T14:51:34.001Z,13.20
2022-10-10T14:54:10.225Z,13.10
2022-10-10T14:57:08.748Z,12.90
2022-10-10T14:59:47.865Z,12.80
2022-10-10T15:02:21.811Z,12.80
2022-10-10T15:04:51.186Z,12.90
2022-10-10T15:07:20.723Z,12.80
2022-10-10T15:12:40.930Z,12.70
2022-10-10T15:15:14.231Z,12.70
2022-10-10T15:17:44.397Z,12.60
2022-10-10T15:20:14.645Z,12.60
2022-10-10T15:22:46.296Z,12.50
2022-10-10T15:25:14.937Z,12.40
2022-10-10T15:27:43.541Z,12.30
2022-10-10T15:30:13.127Z,12.30
2022-10-10T15:32:43.520Z,12.10
2022-10-10T15:35:15.842Z,12.00
2022-10-10T15:37:44.686Z,11.80
2022-10-10T15:40:15.379Z,11.70
2022-10-10T15:42:44.258Z,11.50
2022-10-10T15:45:13.031Z,11.40
2022-10-10T15:47:46.577Z,11.30
2022-10-10T15:50:15.570Z,11.20
2022-10-10T15:52:44.214Z,11.10
2022-10-10T15:55:12.839Z,11.00
2022-10-10T15:57:41.429Z,11.00
2022-10-10T16:00:10.947Z,10.90
2022-10-10T16:02:39.634Z,10.80
2022-10-10T16:05:10.418Z,10.70
2022-10-10T16:07:47.512Z,10.60
2022-10-10T16:10:17.784Z,10.50
2022-10-10T16:12:46.492Z,10.40
2022-10-10T16:15:15.311Z,10.40
2022-10-10T16:17:44.431Z,10.40
2022-10-10T16:20:14.804Z,10.40
2022-10-10T16:22:43.374Z,10.40
2022-10-10T16:25:27.324Z,10.40
2022-10-10T16:27:56.404Z,10.40
2022-10-10T16:30:24.944Z,10.40
2022-10-10T16:32:53.606Z,10.30
2022-10-10T16:35:23.969Z,10.30
2022-10-10T16:37:52.718Z,10.30
2022-10-10T16:40:21.289Z,10.20
2022-10-10T16:42:50.109Z,10.10
2022-10-10T16:45:18.906Z,10.00
2022-10-10T16:47:47.529Z,10.00
2022-10-10T16:50:16.137Z,10.00
2022-10-10T16:52:46.247Z,10.00
2022-10-10T16:55:15.120Z,10.00
2022-10-10T16:57:43.690Z,9.90
2022-10-10T17:00:13.222Z,9.80
2022-10-10T17:02:42.520Z,9.70
2022-10-10T17:05:11.551Z,9.70
2022-10-10T17:07:40.097Z,9.60
2022-10-10T17:10:11.338Z,9.50
2022-10-10T17:12:40.010Z,9.50
2022-10-10T17:15:09.810Z,9.50
2022-10-10T17:17:38.798Z,9.50
2022-10-10T17:20:08.402Z,9.50
2022-10-10T17:22:38.024Z,9.40
2022-10-10T17:25:07.639Z,9.50
2022-10-10T17:27:39.005Z,9.50
2022-10-10T17:30:10.145Z,9.60
2022-10-10T17:32:41.151Z,9.50
2022-10-10T17:35:10.187Z,9.50
2022-10-10T17:37:39.214Z,9.50
2022-10-10T17:40:08.832Z,9.50
2022-10-10T17:42:45.483Z,9.50
2022-10-10T17:45:14.075Z,9.60
2022-10-10T17:47:45.407Z,9.60
2022-10-10T17:50:13.962Z,9.70
2022-10-10T17:52:42.531Z,9.90
2022-10-10T17:55:11.659Z,9.80
2022-10-10T17:57:40.218Z,9.80
2022-10-10T18:00:11.865Z,9.80
2022-10-10T18:02:40.757Z,9.80
2022-10-10T18:05:09.700Z,9.70
2022-10-10T18:07:38.406Z,9.70
2022-10-10T18:10:07.845Z,9.60
2022-10-10T18:12:36.696Z,9.50
2022-10-10T18:15:05.826Z,9.50
2022-10-10T18:17:35.896Z,9.40
2022-10-10T18:20:04.713Z,9.30
2022-10-10T18:22:33.336Z,9.40
2022-10-10T18:25:02.102Z,9.30
2022-10-10T18:27:31.216Z,9.30
2022-10-10T18:30:00.234Z,9.30
2022-10-10T18:32:28.940Z,9.20
2022-10-10T18:35:00.031Z,9.20
2022-10-10T18:37:28.651Z,9.10
2022-10-10T18:39:57.262Z,9.10
2022-10-10T18:42:25.811Z,9.10
2022-10-10T18:44:54.401Z,9.10
2022-10-10T18:47:23.035Z,9.10
2022-10-10T18:49:51.740Z,9.20
2022-10-10T18:52:21.999Z,9.10
2022-10-10T18:54:51.273Z,9.10
2022-10-10T18:57:19.864Z,9.10
2022-10-10T18:59:50.627Z,9.10
2022-10-10T19:02:19.186Z,9.10
2022-10-10T19:04:48.698Z,9.10
2022-10-10T19:07:17.411Z,9.00
2022-10-10T19:09:47.507Z,9.00
2022-10-10T19:12:16.197Z,9.00
2022-10-10T19:14:44.830Z,8.90
2022-10-10T19:17:13.411Z,8.90
2022-10-10T19:19:44.978Z,8.90
2022-10-10T19:22:13.947Z,8.80
2022-10-10T19:24:42.701Z,8.80
2022-10-10T19:27:12.709Z,8.80
2022-10-10T19:29:41.264Z,8.80
2022-10-10T19:32:09.935Z,8.80
2022-10-10T19:34:39.483Z,8.90
2022-10-10T19:37:08.113Z,8.90
2022-10-10T19:39:36.689Z,8.80
2022-10-10T19:42:05.436Z,8.80
2022-10-10T19:44:35.559Z,8.80
2022-10-10T19:47:04.310Z,8.90
2022-10-10T19:49:33.178Z,8.80
2022-10-10T19:52:01.756Z,8.80
2022-10-10T19:54:30.722Z,8.70
2022-10-10T19:56:59.426Z,8.60
2022-10-10T19:59:28.022Z,8.60
2022-10-10T20:01:58.156Z,8.50
2022-10-10T20:04:26.841Z,8.40
2022-10-10T20:06:55.423Z,8.30
2022-10-10T20:09:25.750Z,8.30
2022-10-10T20:11:54.358Z,8.20
2022-10-10T20:14:23.071Z,8.20
2022-10-10T20:16:52.007Z,8.10
2022-10-10T20:19:22.075Z,8.10
2022-10-10T20:21:50.759Z,8.00
2022-10-10T20:24:19.520Z,8.00
2022-10-10T20:26:48.360Z,8.10
2022-10-10T20:29:19.292Z,8.00
2022-10-10T20:31:48.093Z,8.00
2022-10-10T20:34:16.720Z,8.00
2022-10-10T20:36:47.111Z,8.00
2022-10-10T20:39:15.928Z,7.90
2022-10-10T20:41:44.802Z,7.90
2022-10-10T20:44:14.886Z,7.90
2022-10-10T20:46:45.211Z,7.80
2022-10-10T20:49:16.221Z,7.90
2022-10-10T20:51:48.878Z,7.80
2022-10-10T20:54:18.714Z,7.90
2022-10-10T20:56:49.268Z,8.00
2022-10-10T20:59:17.898Z,8.00
2022-10-10T21:01:47.301Z,7.90
2022-10-10T21:04:19.026Z,8.00
2022-10-10T21:06:49.252Z,8.00
2022-10-10T21:09:18.695Z,8.00
2022-10-10T21:11:50.886Z,8.00
2022-10-10T21:14:21.513Z,8.00
2022-10-10T21:16:51.473Z,8.00
2022-10-10T21:19:20.348Z,8.00
2022-10-10T21:21:50.360Z,7.90
2022-10-10T21:24:20.175Z,8.00
2022-10-10T21:26:50.917Z,8.00
2022-10-10T21:29:23.013Z,8.00
2022-10-10T21:31:51.633Z,8.00
2022-10-10T21:34:24.075Z,8.00
2022-10-10T21:36:54.109Z,8.00
2022-10-10T21:39:22.697Z,8.00
2022-10-10T21:41:51.505Z,8.00
2022-10-10T21:44:20.815Z,8.00
2022-10-10T21:46:50.059Z,8.00
2022-10-10T21:49:18.651Z,8.00
2022-10-10T21:51:47.209Z,8.00
2022-10-10T21:54:17.433Z,8.00
2022-10-10T21:56:46.276Z,8.00
2022-10-10T21:59:14.887Z,8.00
2022-10-10T22:01:44.482Z,8.10
2022-10-10T22:04:13.108Z,8.10
2022-10-10T22:06:41.810Z,8.10
2022-10-10T22:09:10.548Z,8.10
2022-10-10T22:11:40.666Z,8.20
2022-10-10T22:14:09.318Z,8.20
2022-10-10T22:16:41.632Z,8.30
2022-10-10T22:19:10.739Z,8.30
2022-10-10T22:21:39.413Z,8.40
2022-10-10T22:24:09.448Z,8.50
2022-10-10T22:26:39.959Z,8.60
2022-10-10T22:29:08.701Z,8.70
2022-10-10T22:31:38.083Z,8.80
2022-10-10T22:34:09.265Z,8.90
2022-10-10T22:36:38.198Z,9.00
2022-10-10T22:39:11.237Z,9.10
2022-10-10T22:41:41.350Z,9.20
2022-10-10T22:44:11.819Z,9.20
2022-10-10T22:46:40.535Z,9.30
2022-10-10T22:49:09.161Z,9.20
2022-10-10T22:51:37.728Z,9.20
2022-10-10T22:54:06.684Z,9.20
2022-10-10T22:56:35.432Z,9.10
2022-10-10T22:59:05.790Z,9.00
2022-10-10T23:01:34.424Z,9.00
2022-10-10T23:04:09.443Z,9.00
2022-10-10T23:06:38.079Z,9.20
2022-10-10T23:09:06.743Z,9.10
2022-10-10T23:11:35.329Z,9.10
2022-10-10T23:14:05.453Z,9.20
2022-10-10T23:16:40.689Z,9.10
2022-10-10T23:19:09.711Z,9.20
2022-10-10T23:21:38.303Z,9.10
2022-10-10T23:24:07.586Z,9.10
2022-10-10T23:26:36.123Z,9.10
2022-10-10T23:29:06.229Z,9.00
2022-10-10T23:31:34.808Z,9.10
2022-10-10T23:34:03.556Z,9.10
2022-10-10T23:36:32.270Z,9.00
2022-10-10T23:39:01.111Z,9.00
2022-10-10T23:41:29.740Z,9.00
2022-10-10T23:43:58.350Z,8.90
2022-10-10T23:46:28.376Z,8.90
2022-10-10T23:48:57.250Z,8.80
2022-10-10T23:51:29.517Z,8.80
2022-10-10T23:53:58.333Z,8.80
2022-10-10T23:56:27.025Z,8.80
2022-10-10T23:58:55.858Z,8.70
